<?xml version="1.0" encoding="UTF-8" standalone="no" ?>
<gpx xmlns="http://www.topografix.com/GPX/1/1" xmlns:xsi="http://www.w3.org/2001/XMLSchema-instance" xsi:schemaLocation="http://www.topografix.com/GPX/1/1 http://www.topografix.com/GPX/1/1/gpx.xsd" version="1.1" creator="VisuGPX - https://www.visugpx.com">
  <metadata>
    <name>HP.Les Mercenaires:Bargème -Le Petit Brouis</name>
    <desc><![CDATA[Départ de Bargéme centre du village pour rejoindre sens horaire Le Petit Brouis,arrivée cote 1352,retour par le hameau d'Estang et rattraper le GR 49
Jusqu'a Bargéme]]></desc>
  </metadata>
  <trk>
    <name><![CDATA[OR-8006471--Bargème:le Petit Brouis]]></name>
    <trkseg>
      <trkpt lat="43.72979" lon="6.57289">
        <ele>1060</ele>
        <time>2017-10-15T12:22:12Z</time>
      </trkpt>
      <trkpt lat="43.73033" lon="6.57137">
        <ele>1065</ele>
        <time>2017-10-15T12:24:12Z</time>
      </trkpt>
      <trkpt lat="43.7314" lon="6.56929">
        <ele>1072</ele>
        <time>2017-10-15T12:26:12Z</time>
      </trkpt>
      <trkpt lat="43.73164" lon="6.56845">
        <ele>1073</ele>
        <time>2017-10-15T12:28:12Z</time>
      </trkpt>
      <trkpt lat="43.73254" lon="6.56835">
        <ele>1075</ele>
        <time>2017-10-15T12:30:12Z</time>
      </trkpt>
      <trkpt lat="43.73316" lon="6.56826">
        <ele>1074</ele>
        <time>2017-10-15T12:32:12Z</time>
      </trkpt>
      <trkpt lat="43.7338" lon="6.56845">
        <ele>1071</ele>
        <time>2017-10-15T12:34:12Z</time>
      </trkpt>
      <trkpt lat="43.73453" lon="6.56809">
        <ele>1086</ele>
        <time>2017-10-15T12:36:12Z</time>
      </trkpt>
      <trkpt lat="43.73414" lon="6.57056">
        <ele>1073</ele>
        <time>2017-10-15T12:38:12Z</time>
      </trkpt>
      <trkpt lat="43.73422" lon="6.57279">
        <ele>1071</ele>
        <time>2017-10-15T12:40:12Z</time>
      </trkpt>
      <trkpt lat="43.73473" lon="6.57476">
        <ele>1073</ele>
        <time>2017-10-15T12:42:12Z</time>
      </trkpt>
      <trkpt lat="43.73473" lon="6.57629">
        <ele>1065</ele>
        <time>2017-10-15T12:44:12Z</time>
      </trkpt>
      <trkpt lat="43.73506" lon="6.57772">
        <ele>1067</ele>
        <time>2017-10-15T12:46:12Z</time>
      </trkpt>
      <trkpt lat="43.73535" lon="6.57933">
        <ele>1067</ele>
        <time>2017-10-15T12:48:12Z</time>
      </trkpt>
      <trkpt lat="43.73521" lon="6.58073">
        <ele>1065</ele>
        <time>2017-10-15T12:50:12Z</time>
      </trkpt>
      <trkpt lat="43.73515" lon="6.58225">
        <ele>1061</ele>
        <time>2017-10-15T12:52:12Z</time>
      </trkpt>
      <trkpt lat="43.73523" lon="6.58429">
        <ele>1053</ele>
        <time>2017-10-15T12:54:12Z</time>
      </trkpt>
      <trkpt lat="43.73552" lon="6.58553">
        <ele>1052</ele>
        <time>2017-10-15T12:56:12Z</time>
      </trkpt>
      <trkpt lat="43.73588" lon="6.58498">
        <ele>1063</ele>
        <time>2017-10-15T12:58:12Z</time>
      </trkpt>
      <trkpt lat="43.73617" lon="6.58487">
        <ele>1073</ele>
        <time>2017-10-15T13:00:12Z</time>
      </trkpt>
      <trkpt lat="43.73684" lon="6.58465">
        <ele>1100</ele>
        <time>2017-10-15T13:02:12Z</time>
      </trkpt>
      <trkpt lat="43.7373" lon="6.58573">
        <ele>1120</ele>
        <time>2017-10-15T13:04:12Z</time>
      </trkpt>
      <trkpt lat="43.73786" lon="6.58663">
        <ele>1147</ele>
        <time>2017-10-15T13:06:12Z</time>
      </trkpt>
      <trkpt lat="43.73842" lon="6.58813">
        <ele>1171</ele>
        <time>2017-10-15T13:08:12Z</time>
      </trkpt>
      <trkpt lat="43.7391" lon="6.58965">
        <ele>1199</ele>
        <time>2017-10-15T13:10:12Z</time>
      </trkpt>
      <trkpt lat="43.73924" lon="6.58935">
        <ele>1209</ele>
        <time>2017-10-15T13:12:12Z</time>
      </trkpt>
      <trkpt lat="43.73955" lon="6.58899">
        <ele>1228</ele>
        <time>2017-10-15T13:14:12Z</time>
      </trkpt>
      <trkpt lat="43.73989" lon="6.5882">
        <ele>1250</ele>
        <time>2017-10-15T13:16:12Z</time>
      </trkpt>
      <trkpt lat="43.73954" lon="6.58766">
        <ele>1245</ele>
        <time>2017-10-15T13:18:12Z</time>
      </trkpt>
      <trkpt lat="43.74005" lon="6.58742">
        <ele>1269</ele>
        <time>2017-10-15T13:20:12Z</time>
      </trkpt>
      <trkpt lat="43.74013" lon="6.5868">
        <ele>1280</ele>
        <time>2017-10-15T13:22:12Z</time>
      </trkpt>
      <trkpt lat="43.74085" lon="6.58701">
        <ele>1292</ele>
        <time>2017-10-15T13:24:12Z</time>
      </trkpt>
      <trkpt lat="43.74088" lon="6.58641">
        <ele>1300</ele>
        <time>2017-10-15T13:26:12Z</time>
      </trkpt>
      <trkpt lat="43.74129" lon="6.58626">
        <ele>1313</ele>
        <time>2017-10-15T13:28:12Z</time>
      </trkpt>
      <trkpt lat="43.74126" lon="6.5856">
        <ele>1320</ele>
        <time>2017-10-15T13:30:12Z</time>
      </trkpt>
      <trkpt lat="43.74247" lon="6.58506">
        <ele>1352</ele>
        <time>2017-10-15T13:32:12Z</time>
      </trkpt>
      <trkpt lat="43.74274" lon="6.58562">
        <ele>1353</ele>
        <time>2017-10-15T13:34:12Z</time>
      </trkpt>
      <trkpt lat="43.74295" lon="6.58787">
        <ele>1374</ele>
        <time>2017-10-15T13:36:12Z</time>
      </trkpt>
      <trkpt lat="43.74278" lon="6.58892">
        <ele>1382</ele>
        <time>2017-10-15T13:38:12Z</time>
      </trkpt>
      <trkpt lat="43.74318" lon="6.58914">
        <ele>1395</ele>
        <time>2017-10-15T13:40:12Z</time>
      </trkpt>
      <trkpt lat="43.74337" lon="6.58991">
        <ele>1408</ele>
        <time>2017-10-15T13:42:12Z</time>
      </trkpt>
      <trkpt lat="43.7438" lon="6.59148">
        <ele>1430</ele>
        <time>2017-10-15T13:44:12Z</time>
      </trkpt>
      <trkpt lat="43.7438" lon="6.59358">
        <ele>1439</ele>
        <time>2017-10-15T13:46:12Z</time>
      </trkpt>
      <trkpt lat="43.74406" lon="6.59525">
        <ele>1444</ele>
        <time>2017-10-15T13:48:12Z</time>
      </trkpt>
      <trkpt lat="43.74498" lon="6.59933">
        <ele>1453</ele>
        <time>2017-10-15T13:50:12Z</time>
      </trkpt>
      <trkpt lat="43.74481" lon="6.60047">
        <ele>1454</ele>
        <time>2017-10-15T13:52:12Z</time>
      </trkpt>
      <trkpt lat="43.7451" lon="6.60169">
        <ele>1458</ele>
        <time>2017-10-15T13:54:12Z</time>
      </trkpt>
      <trkpt lat="43.74532" lon="6.603">
        <ele>1459</ele>
        <time>2017-10-15T13:56:12Z</time>
      </trkpt>
      <trkpt lat="43.74516" lon="6.60375">
        <ele>1455</ele>
        <time>2017-10-15T13:58:12Z</time>
      </trkpt>
      <trkpt lat="43.74383" lon="6.60448">
        <ele>1417</ele>
        <time>2017-10-15T14:00:12Z</time>
      </trkpt>
      <trkpt lat="43.74285" lon="6.60538">
        <ele>1380</ele>
        <time>2017-10-15T14:02:12Z</time>
      </trkpt>
      <trkpt lat="43.74271" lon="6.60504">
        <ele>1371</ele>
        <time>2017-10-15T14:04:12Z</time>
      </trkpt>
      <trkpt lat="43.74237" lon="6.60613">
        <ele>1356</ele>
        <time>2017-10-15T14:06:12Z</time>
      </trkpt>
      <trkpt lat="43.74209" lon="6.60787">
        <ele>1335</ele>
        <time>2017-10-15T14:08:12Z</time>
      </trkpt>
      <trkpt lat="43.74189" lon="6.60725">
        <ele>1322</ele>
        <time>2017-10-15T14:10:12Z</time>
      </trkpt>
      <trkpt lat="43.7416" lon="6.60841">
        <ele>1307</ele>
        <time>2017-10-15T14:12:12Z</time>
      </trkpt>
      <trkpt lat="43.74093" lon="6.60736">
        <ele>1264</ele>
        <time>2017-10-15T14:14:12Z</time>
      </trkpt>
      <trkpt lat="43.74065" lon="6.60839">
        <ele>1254</ele>
        <time>2017-10-15T14:16:12Z</time>
      </trkpt>
      <trkpt lat="43.74034" lon="6.608">
        <ele>1233</ele>
        <time>2017-10-15T14:18:12Z</time>
      </trkpt>
      <trkpt lat="43.73974" lon="6.60875">
        <ele>1207</ele>
        <time>2017-10-15T14:20:12Z</time>
      </trkpt>
      <trkpt lat="43.73913" lon="6.60912">
        <ele>1173</ele>
        <time>2017-10-15T14:22:12Z</time>
      </trkpt>
      <trkpt lat="43.73895" lon="6.60815">
        <ele>1153</ele>
        <time>2017-10-15T14:24:12Z</time>
      </trkpt>
      <trkpt lat="43.7385" lon="6.60843">
        <ele>1128</ele>
        <time>2017-10-15T14:26:12Z</time>
      </trkpt>
      <trkpt lat="43.7383" lon="6.60877">
        <ele>1119</ele>
        <time>2017-10-15T14:28:12Z</time>
      </trkpt>
      <trkpt lat="43.73791" lon="6.61017">
        <ele>1097</ele>
        <time>2017-10-15T14:30:12Z</time>
      </trkpt>
      <trkpt lat="43.73726" lon="6.61173">
        <ele>1066</ele>
        <time>2017-10-15T14:32:12Z</time>
      </trkpt>
      <trkpt lat="43.73673" lon="6.61195">
        <ele>1046</ele>
        <time>2017-10-15T14:34:12Z</time>
      </trkpt>
      <trkpt lat="43.73614" lon="6.61283">
        <ele>1035</ele>
        <time>2017-10-15T14:36:12Z</time>
      </trkpt>
      <trkpt lat="43.73495" lon="6.61313">
        <ele>1014</ele>
        <time>2017-10-15T14:38:12Z</time>
      </trkpt>
      <trkpt lat="43.73399" lon="6.61332">
        <ele>1004</ele>
        <time>2017-10-15T14:40:12Z</time>
      </trkpt>
      <trkpt lat="43.73281" lon="6.61371">
        <ele>995</ele>
        <time>2017-10-15T14:42:12Z</time>
      </trkpt>
      <trkpt lat="43.73276" lon="6.61182">
        <ele>993</ele>
        <time>2017-10-15T14:44:12Z</time>
      </trkpt>
      <trkpt lat="43.7334" lon="6.60935">
        <ele>984</ele>
        <time>2017-10-15T14:46:12Z</time>
      </trkpt>
      <trkpt lat="43.73312" lon="6.60837">
        <ele>988</ele>
        <time>2017-10-15T14:48:12Z</time>
      </trkpt>
      <trkpt lat="43.7327" lon="6.6042">
        <ele>990</ele>
        <time>2017-10-15T14:50:12Z</time>
      </trkpt>
      <trkpt lat="43.73222" lon="6.60161">
        <ele>985</ele>
        <time>2017-10-15T14:52:12Z</time>
      </trkpt>
      <trkpt lat="43.73171" lon="6.59922">
        <ele>975</ele>
        <time>2017-10-15T14:54:12Z</time>
      </trkpt>
      <trkpt lat="43.73104" lon="6.59742">
        <ele>960</ele>
        <time>2017-10-15T14:56:12Z</time>
      </trkpt>
      <trkpt lat="43.73101" lon="6.59502">
        <ele>962</ele>
        <time>2017-10-15T14:58:12Z</time>
      </trkpt>
      <trkpt lat="43.7309" lon="6.59304">
        <ele>950</ele>
        <time>2017-10-15T15:00:12Z</time>
      </trkpt>
      <trkpt lat="43.7303" lon="6.59146">
        <ele>950</ele>
        <time>2017-10-15T15:02:12Z</time>
      </trkpt>
      <trkpt lat="43.7291" lon="6.58968">
        <ele>942</ele>
        <time>2017-10-15T15:04:12Z</time>
      </trkpt>
      <trkpt lat="43.7289" lon="6.58828">
        <ele>945</ele>
        <time>2017-10-15T15:06:12Z</time>
      </trkpt>
      <trkpt lat="43.72887" lon="6.58551">
        <ele>967</ele>
        <time>2017-10-15T15:08:12Z</time>
      </trkpt>
      <trkpt lat="43.72879" lon="6.5833">
        <ele>970</ele>
        <time>2017-10-15T15:10:12Z</time>
      </trkpt>
      <trkpt lat="43.72887" lon="6.58141">
        <ele>967</ele>
        <time>2017-10-15T15:12:12Z</time>
      </trkpt>
      <trkpt lat="43.72895" lon="6.57987">
        <ele>962</ele>
        <time>2017-10-15T15:14:12Z</time>
      </trkpt>
      <trkpt lat="43.7295" lon="6.57873">
        <ele>965</ele>
        <time>2017-10-15T15:16:12Z</time>
      </trkpt>
      <trkpt lat="43.72901" lon="6.57807">
        <ele>969</ele>
        <time>2017-10-15T15:18:12Z</time>
      </trkpt>
      <trkpt lat="43.72878" lon="6.57691">
        <ele>989</ele>
        <time>2017-10-15T15:20:12Z</time>
      </trkpt>
      <trkpt lat="43.7289" lon="6.57633">
        <ele>997</ele>
        <time>2017-10-15T15:22:12Z</time>
      </trkpt>
      <trkpt lat="43.7294" lon="6.57697">
        <ele>989</ele>
        <time>2017-10-15T15:24:12Z</time>
      </trkpt>
      <trkpt lat="43.72954" lon="6.57635">
        <ele>998</ele>
        <time>2017-10-15T15:26:12Z</time>
      </trkpt>
      <trkpt lat="43.72963" lon="6.57554">
        <ele>1014</ele>
        <time>2017-10-15T15:28:12Z</time>
      </trkpt>
      <trkpt lat="43.7298" lon="6.57463">
        <ele>1036</ele>
        <time>2017-10-15T15:30:12Z</time>
      </trkpt>
      <trkpt lat="43.72955" lon="6.57365">
        <ele>1045</ele>
        <time>2017-10-15T15:32:12Z</time>
      </trkpt>
      <trkpt lat="43.72997" lon="6.57229">
        <ele>1070</ele>
        <time>2017-10-15T15:34:12Z</time>
      </trkpt>
    </trkseg>
  </trk>
</gpx>